DMAD Reservoir




Date Reservoir Capacity (AF) Hourly Avg. Stream Stage (ft) Reservoir Outflow (cfs) Reservoir Gate 1 Height (ft) Reservoir Gate 2 Height (ft) Reservoir Gate 3 Height (ft) Stream Flow (cfs) Stream Conductivity (ppm) Battery Voltage (V) Reservoir Height (ft) Canal Flow (cfs) Canal Height (ft) Canal Flow 2 (ft)
05/01/2018 4,284 275 1.20 0.00 2.49 0.00 0.00 13.35 58.99 0.00 0.00
05/02/2018 4,276 310 1.20 0.00 2.97 0.00 0.00 13.33 58.98 0.00 0.00
05/03/2018 4,105 306 1.20 0.00 2.97 0.00 0.00 13.63 58.75 0.00 0.00
05/04/2018 3,897 221 1.20 0.00 1.83 0.00 0.00 13.35 58.47 0.00 0.00
05/05/2018 4,016 163 1.20 0.00 1.00 0.00 0.00 13.54 58.63 0.00 0.00
05/06/2018 4,068 184 1.20 0.00 1.27 0.00 0.00 13.38 58.70 0.00 0.00
05/07/2018 4,053 210 1.20 0.00 1.64 0.00 0.00 13.44 58.68 0.00 0.00
05/08/2018 3,957 271 1.20 0.00 2.50 0.00 0.00 13.34 58.55 0.00 0.00
05/09/2018 3,853 273 1.20 0.00 2.57 0.00 0.00 13.42 58.41 0.00 0.00
05/10/2018 3,711 331 1.67 0.00 2.95 0.00 0.00 13.21 58.22 0.00 0.00
05/11/2018 3,387 359 2.33 0.00 2.81 0.00 0.00 12.81 57.73 0.00 0.00
05/12/2018 3,387 249 2.50 0.00 1.06 0.00 0.00 12.82 57.73 0.00 0.00
05/13/2018 3,524 174 1.55 0.00 0.89 0.00 0.00 12.83 57.96 0.00 0.00
05/14/2018 3,741 142 1.00 0.00 0.94 0.00 0.00 12.94 58.26 0.00 0.00
05/15/2018 3,860 117 1.00 0.00 0.59 0.00 0.00 13.16 58.42 0.00 0.00
05/16/2018 3,912 77 1.00 0.00 0.04 0.00 0.00 13.50 58.49 0.00 0.00
05/17/2018 3,927 74 1.00 0.00 0.00 0.00 0.00 13.53 58.51 0.00 0.00
05/18/2018 3,979 83 1.00 0.00 0.12 0.00 0.00 13.50 58.58 0.00 0.00
05/19/2018 3,957 148 1.00 0.00 1.00 0.00 0.00 13.40 58.55 0.00 0.00
05/20/2018 3,882 139 1.00 0.00 0.88 0.00 0.00 13.46 58.45 0.00 0.00
05/21/2018 3,711 124 1.00 0.00 0.70 0.00 0.00 13.52 58.22 0.00 0.00
05/22/2018 3,704 126 1.00 0.00 0.72 0.00 0.00 13.40 58.21 0.00 0.00
05/23/2018 3,600 130 1.00 0.00 0.79 0.00 0.00 13.41 58.07 0.00 0.00
05/24/2018 3,667 83 1.00 0.00 0.14 0.00 0.00 13.40 58.16 0.00 0.00
05/25/2018 3,763 105 1.00 0.00 0.43 0.00 0.00 13.42 58.29 0.00 0.00
05/26/2018 3,860 81 0.74 0.00 0.35 0.00 0.00 13.21 58.42 0.00 0.00
05/27/2018 3,890 96 0.50 0.00 0.80 0.00 0.00 13.47 58.46 0.00 0.00
05/28/2018 3,912 53 0.50 0.00 0.21 0.00 0.00 13.34 58.49 0.00 0.00
05/29/2018 3,920 37 0.50 0.00 0.00 0.00 0.00 13.56 58.50 0.00 0.00
05/30/2018 4,031 37 0.50 0.00 0.00 0.00 0.00 13.48 58.65 0.00 0.00
05/31/2018 4,053 63 0.50 0.00 0.34 0.00 0.00 13.28 58.68 0.00 0.00
Average 163 0.00 0.00
Maximum 359 0.00 0.00
Minimum 37 0.00 0.00
Total Volume (AF) 9,996 0.00 0.00